sensor_id;sensor_type;location;lat;lon;timestamp;pressure;altitude;pressure_sealevel;temperature;humidity
8575;BME280;4325;42.520;27.448;2023-04-28T00:00:07;101289.28;;;11.88;74.16
8575;BME280;4325;42.520;27.448;2023-04-28T00:02:34;101272.81;;;11.88;74.46
8575;BME280;4325;42.520;27.448;2023-04-28T00:05:01;101282.16;;;11.87;72.86
8575;BME280;4325;42.520;27.448;2023-04-28T00:07:29;101271.72;;;11.84;72.72
8575;BME280;4325;42.520;27.448;2023-04-28T00:09:56;101270.88;;;11.84;72.47
8575;BME280;4325;42.520;27.448;2023-04-28T00:12:23;101265.94;;;11.81;69.83
8575;BME280;4325;42.520;27.448;2023-04-28T00:14:50;101276.91;;;11.81;66.07
8575;BME280;4325;42.520;27.448;2023-04-28T00:17:17;101271.13;;;11.77;63.48
8575;BME280;4325;42.520;27.448;2023-04-28T00:19:44;101279.63;;;11.76;64.31
8575;BME280;4325;42.520;27.448;2023-04-28T00:22:11;101281.53;;;11.75;63.50
8575;BME280;4325;42.520;27.448;2023-04-28T00:24:39;101276.06;;;11.80;62.94
8575;BME280;4325;42.520;27.448;2023-04-28T00:27:06;101282.69;;;11.84;61.55
8575;BME280;4325;42.520;27.448;2023-04-28T00:29:33;101276.38;;;11.84;61.27
8575;BME280;4325;42.520;27.448;2023-04-28T00:32:01;101277.72;;;11.81;60.67
8575;BME280;4325;42.520;27.448;2023-04-28T00:34:31;101273.06;;;11.82;60.25
8575;BME280;4325;42.520;27.448;2023-04-28T00:36:58;101279.94;;;11.79;60.71
8575;BME280;4325;42.520;27.448;2023-04-28T00:39:25;101277.19;;;11.79;59.88
8575;BME280;4325;42.520;27.448;2023-04-28T00:41:53;101278.56;;;11.82;59.00
8575;BME280;4325;42.520;27.448;2023-04-28T00:44:20;101289.53;;;11.82;58.65
8575;BME280;4325;42.520;27.448;2023-04-28T00:46:47;101291.44;;;11.81;58.87
8575;BME280;4325;42.520;27.448;2023-04-28T00:49:15;101294.72;;;11.78;58.82
8575;BME280;4325;42.520;27.448;2023-04-28T00:51:42;101294.16;;;11.76;59.18
8575;BME280;4325;42.520;27.448;2023-04-28T00:54:12;101291.41;;;11.76;58.92
8575;BME280;4325;42.520;27.448;2023-04-28T00:56:39;101293.88;;;11.78;58.13
8575;BME280;4325;42.520;27.448;2023-04-28T00:59:08;101293.88;;;11.78;57.22
8575;BME280;4325;42.520;27.448;2023-04-28T01:01:35;101301.03;;;11.79;55.89
8575;BME280;4325;42.520;27.448;2023-04-28T01:04:02;101297.47;;;11.78;54.90
8575;BME280;4325;42.520;27.448;2023-04-28T01:06:29;101294.69;;;11.73;55.01
8575;BME280;4325;42.520;27.448;2023-04-28T01:08:57;101302.91;;;11.73;55.36
8575;BME280;4325;42.520;27.448;2023-04-28T01:11:24;101300.16;;;11.68;54.28
8575;BME280;4325;42.520;27.448;2023-04-28T01:13:51;101306.22;;;11.70;53.56
8575;BME280;4325;42.520;27.448;2023-04-28T01:16:19;101303.47;;;11.70;52.77
8575;BME280;4325;42.520;27.448;2023-04-28T01:18:46;101302.88;;;11.68;52.89
8575;BME280;4325;42.520;27.448;2023-04-28T01:21:14;101295.19;;;11.65;52.94
8575;BME280;4325;42.520;27.448;2023-04-28T01:23:45;101306.47;;;11.69;51.86
8575;BME280;4325;42.520;27.448;2023-04-28T01:26:12;101302.88;;;11.68;52.19
8575;BME280;4325;42.520;27.448;2023-04-28T01:28:39;101306.22;;;11.70;51.67
8575;BME280;4325;42.520;27.448;2023-04-28T01:31:06;101307.78;;;11.66;52.69
8575;BME280;4325;42.520;27.448;2023-04-28T01:33:33;101310.88;;;11.70;52.45
8575;BME280;4325;42.520;27.448;2023-04-28T01:36:01;101317.75;;;11.72;52.81
8575;BME280;4325;42.520;27.448;2023-04-28T01:38:28;101324.81;;;11.68;52.94
8575;BME280;4325;42.520;27.448;2023-04-28T01:40:56;101326.50;;;11.69;53.38
8575;BME280;4325;42.520;27.448;2023-04-28T01:43:23;101322.69;;;11.75;52.65
8575;BME280;4325;42.520;27.448;2023-04-28T01:45:50;101326.00;;;11.77;52.10
8575;BME280;4325;42.520;27.448;2023-04-28T01:48:34;101325.19;;;11.77;51.83
8575;BME280;4325;42.520;27.448;2023-04-28T01:51:01;101333.69;;;11.80;52.11
8575;BME280;4325;42.520;27.448;2023-04-28T01:53:28;101335.88;;;11.78;51.65
8575;BME280;4325;42.520;27.448;2023-04-28T01:55:56;101334.47;;;11.76;52.77
8575;BME280;4325;42.520;27.448;2023-04-28T01:58:24;101333.13;;;11.78;51.55
8575;BME280;4325;42.520;27.448;2023-04-28T02:00:50;101340.28;;;11.79;51.04
8575;BME280;4325;42.520;27.448;2023-04-28T02:03:17;101344.63;;;11.75;51.22
8575;BME280;4325;42.520;27.448;2023-04-28T02:05:44;101341.63;;;11.77;51.03
8575;BME280;4325;42.520;27.448;2023-04-28T02:08:11;101337.47;;;11.69;51.41
8575;BME280;4325;42.520;27.448;2023-04-28T02:10:38;101348.16;;;11.71;51.25
8575;BME280;4325;42.520;27.448;2023-04-28T02:13:07;101340.16;;;11.64;51.45
8575;BME280;4325;42.520;27.448;2023-04-28T02:15:38;101339.59;;;11.62;51.94
8575;BME280;4325;42.520;27.448;2023-04-28T02:18:05;101347.53;;;11.64;52.05
8575;BME280;4325;42.520;27.448;2023-04-28T02:20:32;101340.94;;;11.60;52.52
8575;BME280;4325;42.520;27.448;2023-04-28T02:22:59;101340.94;;;11.60;52.67
8575;BME280;4325;42.520;27.448;2023-04-28T02:25:26;101336.25;;;11.55;52.88
8575;BME280;4325;42.520;27.448;2023-04-28T02:27:53;101346.66;;;11.53;53.63
8575;BME280;4325;42.520;27.448;2023-04-28T02:30:21;101346.66;;;11.53;53.33
8575;BME280;4325;42.520;27.448;2023-04-28T02:32:48;101347.19;;;11.50;53.67
8575;BME280;4325;42.520;27.448;2023-04-28T02:35:15;101349.91;;;11.50;53.78
8575;BME280;4325;42.520;27.448;2023-04-28T02:37:42;101348.53;;;11.48;54.07
8575;BME280;4325;42.520;27.448;2023-04-28T02:40:10;101351.78;;;11.45;54.78
8575;BME280;4325;42.520;27.448;2023-04-28T02:42:37;101347.19;;;11.50;54.51
8575;BME280;4325;42.520;27.448;2023-04-28T02:45:04;101350.72;;;11.46;54.53
8575;BME280;4325;42.520;27.448;2023-04-28T02:47:33;101354.28;;;11.46;53.94
8575;BME280;4325;42.520;27.448;2023-04-28T02:50:00;101359.19;;;11.44;53.62
8575;BME280;4325;42.520;27.448;2023-04-28T02:52:27;101357.03;;;11.46;53.43
8575;BME280;4325;42.520;27.448;2023-04-28T02:54:54;101354.84;;;11.48;53.42
8575;BME280;4325;42.520;27.448;2023-04-28T02:57:22;101360.84;;;11.45;53.87
8575;BME280;4325;42.520;27.448;2023-04-28T02:59:49;101370.75;;;11.46;53.36
8575;BME280;4325;42.520;27.448;2023-04-28T03:02:16;101365.50;;;11.45;53.07
8575;BME280;4325;42.520;27.448;2023-04-28T03:04:46;101370.97;;;11.45;53.58
8575;BME280;4325;42.520;27.448;2023-04-28T03:07:13;101375.63;;;11.44;54.22
8575;BME280;4325;42.520;27.448;2023-04-28T03:09:40;101386.03;;;11.42;54.32
8575;BME280;4325;42.520;27.448;2023-04-28T03:12:07;101381.13;;;11.44;53.73
8575;BME280;4325;42.520;27.448;2023-04-28T03:14:34;101387.72;;;11.43;53.92
8575;BME280;4325;42.520;27.448;2023-04-28T03:17:00;101399.75;;;11.42;53.92
8575;BME280;4325;42.520;27.448;2023-04-28T03:19:27;101397.28;;;11.41;54.69
8575;BME280;4325;42.520;27.448;2023-04-28T03:21:56;101395.09;;;11.43;55.40
8575;BME280;4325;42.520;27.448;2023-04-28T03:24:22;101397.56;;;11.44;55.85
8575;BME280;4325;42.520;27.448;2023-04-28T03:26:49;101401.41;;;11.43;55.61
8575;BME280;4325;42.520;27.448;2023-04-28T03:29:16;101401.94;;;11.40;55.79
8575;BME280;4325;42.520;27.448;2023-04-28T03:31:43;101406.34;;;11.41;55.73
8575;BME280;4325;42.520;27.448;2023-04-28T03:34:10;101415.69;;;11.45;55.78
8575;BME280;4325;42.520;27.448;2023-04-28T03:36:37;101415.75;;;11.50;55.85
8575;BME280;4325;42.520;27.448;2023-04-28T03:39:05;101415.78;;;11.55;55.58
8575;BME280;4325;42.520;27.448;2023-04-28T03:41:32;101421.31;;;11.60;55.66
8575;BME280;4325;42.520;27.448;2023-04-28T03:43:59;101425.69;;;11.61;55.48
8575;BME280;4325;42.520;27.448;2023-04-28T03:46:26;101414.72;;;11.61;55.95
8575;BME280;4325;42.520;27.448;2023-04-28T03:48:53;101424.16;;;11.70;56.10
8575;BME280;4325;42.520;27.448;2023-04-28T03:51:20;101426.13;;;11.75;56.17
8575;BME280;4325;42.520;27.448;2023-04-28T03:53:47;101431.06;;;11.78;56.28
8575;BME280;4325;42.520;27.448;2023-04-28T03:56:15;101440.69;;;11.80;55.04
8575;BME280;4325;42.520;27.448;2023-04-28T03:58:42;101445.06;;;11.76;55.58
8575;BME280;4325;42.520;27.448;2023-04-28T04:01:09;101443.69;;;11.79;55.94
8575;BME280;4325;42.520;27.448;2023-04-28T04:03:36;101453.31;;;11.81;55.34
8575;BME280;4325;42.520;27.448;2023-04-28T04:06:04;101451.66;;;11.80;58.17
8575;BME280;4325;42.520;27.448;2023-04-28T04:08:31;101455.56;;;11.84;55.50
8575;BME280;4325;42.520;27.448;2023-04-28T04:10:58;101461.00;;;11.79;55.49
8575;BME280;4325;42.520;27.448;2023-04-28T04:13:27;101456.88;;;11.77;55.55
8575;BME280;4325;42.520;27.448;2023-04-28T04:15:53;101456.03;;;11.76;55.52
8575;BME280;4325;42.520;27.448;2023-04-28T04:18:21;101462.69;;;11.85;55.16
8575;BME280;4325;42.520;27.448;2023-04-28T04:20:47;101464.97;;;11.99;55.49
8575;BME280;4325;42.520;27.448;2023-04-28T04:23:15;101462.25;;;11.99;55.30
8575;BME280;4325;42.520;27.448;2023-04-28T04:25:42;101466.13;;;12.08;56.14
8575;BME280;4325;42.520;27.448;2023-04-28T04:28:09;101466.69;;;12.10;54.54
8575;BME280;4325;42.520;27.448;2023-04-28T04:30:37;101473.38;;;12.19;54.84
8575;BME280;4325;42.520;27.448;2023-04-28T04:33:04;101474.56;;;12.33;53.26
8575;BME280;4325;42.520;27.448;2023-04-28T04:35:31;101468.56;;;12.41;53.32
8575;BME280;4325;42.520;27.448;2023-04-28T04:37:58;101473.84;;;12.52;52.31
8575;BME280;4325;42.520;27.448;2023-04-28T04:40:25;101483.25;;;12.67;50.32
8575;BME280;4325;42.520;27.448;2023-04-28T04:42:52;101484.72;;;12.84;50.91
8575;BME280;4325;42.520;27.448;2023-04-28T04:45:20;101475.41;;;12.95;50.57
8575;BME280;4325;42.520;27.448;2023-04-28T04:47:48;101485.56;;;12.95;50.75
8575;BME280;4325;42.520;27.448;2023-04-28T04:50:15;101476.78;;;12.93;51.36
8575;BME280;4325;42.520;27.448;2023-04-28T04:52:42;101479.28;;;12.94;51.88
8575;BME280;4325;42.520;27.448;2023-04-28T04:55:09;101485.88;;;12.98;51.06
8575;BME280;4325;42.520;27.448;2023-04-28T04:57:36;101483.97;;;13.04;51.73
8575;BME280;4325;42.520;27.448;2023-04-28T05:00:04;101488.41;;;13.10;51.24
8575;BME280;4325;42.520;27.448;2023-04-28T05:02:31;101488.19;;;13.16;50.65
8575;BME280;4325;42.520;27.448;2023-04-28T05:04:59;101486.81;;;13.29;49.71
8575;BME280;4325;42.520;27.448;2023-04-28T05:07:26;101479.41;;;13.35;49.74
8575;BME280;4325;42.520;27.448;2023-04-28T05:09:53;101479.44;;;13.45;49.16
8575;BME280;4325;42.520;27.448;2023-04-28T05:12:20;101486.03;;;13.49;46.67
8575;BME280;4325;42.520;27.448;2023-04-28T05:14:47;101482.19;;;13.50;44.00
8575;BME280;4325;42.520;27.448;2023-04-28T05:17:14;101485.47;;;13.42;44.38
8575;BME280;4325;42.520;27.448;2023-04-28T05:19:40;101477.75;;;13.39;44.66
8575;BME280;4325;42.520;27.448;2023-04-28T05:22:09;101485.75;;;13.40;44.27
8575;BME280;4325;42.520;27.448;2023-04-28T05:24:36;101489.59;;;13.39;44.25
8575;BME280;4325;42.520;27.448;2023-04-28T05:27:03;101497.00;;;13.39;43.96
8575;BME280;4325;42.520;27.448;2023-04-28T05:29:30;101497.84;;;13.39;43.12
8575;BME280;4325;42.520;27.448;2023-04-28T05:31:57;101503.09;;;13.41;43.74
8575;BME280;4325;42.520;27.448;2023-04-28T05:34:24;101504.72;;;13.47;44.09
8575;BME280;4325;42.520;27.448;2023-04-28T05:36:51;101509.97;;;13.53;44.05
8575;BME280;4325;42.520;27.448;2023-04-28T05:39:19;101509.16;;;13.53;43.99
8575;BME280;4325;42.520;27.448;2023-04-28T05:41:46;101512.69;;;13.48;44.00
8575;BME280;4325;42.520;27.448;2023-04-28T05:44:13;101509.13;;;13.43;44.03
8575;BME280;4325;42.520;27.448;2023-04-28T05:46:40;101516.03;;;13.45;42.86
8575;BME280;4325;42.520;27.448;2023-04-28T05:49:09;101510.78;;;13.44;43.30
8575;BME280;4325;42.520;27.448;2023-04-28T05:51:36;101506.41;;;13.48;43.85
8575;BME280;4325;42.520;27.448;2023-04-28T05:54:04;101513.56;;;13.59;45.10
8575;BME280;4325;42.520;27.448;2023-04-28T05:56:32;101513.28;;;13.65;44.09
8575;BME280;4325;42.520;27.448;2023-04-28T05:58:59;101516.34;;;13.69;44.29
8575;BME280;4325;42.520;27.448;2023-04-28T06:01:28;101521.84;;;13.74;44.59
8575;BME280;4325;42.520;27.448;2023-04-28T06:03:55;101518.00;;;13.75;44.41
8575;BME280;4325;42.520;27.448;2023-04-28T06:06:23;101525.16;;;13.86;45.04
8575;BME280;4325;42.520;27.448;2023-04-28T06:08:50;101518.28;;;13.94;44.79
8575;BME280;4325;42.520;27.448;2023-04-28T06:11:17;101523.78;;;13.99;43.20
8575;BME280;4325;42.520;27.448;2023-04-28T06:13:48;101526.81;;;14.02;42.34
8575;BME280;4325;42.520;27.448;2023-04-28T06:16:15;101527.94;;;14.01;41.47
8575;BME280;4325;42.520;27.448;2023-04-28T06:18:43;101525.97;;;14.07;40.72
8575;BME280;4325;42.520;27.448;2023-04-28T06:21:10;101529.56;;;14.22;40.49
8575;BME280;4325;42.520;27.448;2023-04-28T06:23:37;101521.88;;;14.34;39.26
8575;BME280;4325;42.520;27.448;2023-04-28T06:26:05;101524.06;;;14.47;38.58
8575;BME280;4325;42.520;27.448;2023-04-28T06:28:32;101522.94;;;14.59;37.40
8575;BME280;4325;42.520;27.448;2023-04-28T06:31:00;101527.88;;;14.67;37.42
8575;BME280;4325;42.520;27.448;2023-04-28T06:33:27;101534.16;;;14.82;36.66
8575;BME280;4325;42.520;27.448;2023-04-28T06:35:54;101518.06;;;15.09;36.59
8575;BME280;4325;42.520;27.448;2023-04-28T06:38:21;101520.13;;;15.48;35.71
8575;BME280;4325;42.520;27.448;2023-04-28T06:40:48;101514.03;;;15.84;35.44
8575;BME280;4325;42.520;27.448;2023-04-28T06:43:15;101513.81;;;16.15;35.19
8575;BME280;4325;42.520;27.448;2023-04-28T06:45:41;101516.91;;;16.37;34.65
8575;BME280;4325;42.520;27.448;2023-04-28T06:48:10;101520.78;;;16.36;33.55
8575;BME280;4325;42.520;27.448;2023-04-28T06:50:37;101519.25;;;16.25;33.53
8575;BME280;4325;42.520;27.448;2023-04-28T06:53:03;101530.38;;;16.15;33.35
8575;BME280;4325;42.520;27.448;2023-04-28T06:55:30;101531.59;;;16.04;33.62
8575;BME280;4325;42.520;27.448;2023-04-28T06:57:58;101522.72;;;16.07;34.02
8575;BME280;4325;42.520;27.448;2023-04-28T07:00:25;101531.44;;;16.19;33.28
8575;BME280;4325;42.520;27.448;2023-04-28T07:02:52;101523.09;;;16.24;33.49
8575;BME280;4325;42.520;27.448;2023-04-28T07:05:20;101511.47;;;16.27;33.27
8575;BME280;4325;42.520;27.448;2023-04-28T07:07:47;101522.44;;;16.37;33.66
8575;BME280;4325;42.520;27.448;2023-04-28T07:10:14;101515.97;;;16.52;33.57
8575;BME280;4325;42.520;27.448;2023-04-28T07:12:41;101507.56;;;16.62;33.12
8575;BME280;4325;42.520;27.448;2023-04-28T07:15:08;101511.59;;;16.74;33.06
8575;BME280;4325;42.520;27.448;2023-04-28T07:17:35;101502.88;;;16.86;32.79
8575;BME280;4325;42.520;27.448;2023-04-28T07:20:02;101498.78;;;17.02;32.83
8575;BME280;4325;42.520;27.448;2023-04-28T07:22:31;101497.56;;;17.13;32.64
8575;BME280;4325;42.520;27.448;2023-04-28T07:24:58;101500.09;;;17.28;32.47
8575;BME280;4325;42.520;27.448;2023-04-28T07:27:25;101494.22;;;17.35;32.13
8575;BME280;4325;42.520;27.448;2023-04-28T07:29:51;101495.31;;;17.34;32.31
8575;BME280;4325;42.520;27.448;2023-04-28T07:32:18;101493.69;;;17.33;32.09
8575;BME280;4325;42.520;27.448;2023-04-28T07:34:45;101498.81;;;17.21;32.66
8575;BME280;4325;42.520;27.448;2023-04-28T07:37:12;101489.31;;;17.27;32.17
8575;BME280;4325;42.520;27.448;2023-04-28T07:39:40;101489.41;;;17.22;32.22
8575;BME280;4325;42.520;27.448;2023-04-28T07:42:08;101489.41;;;17.22;32.47
8575;BME280;4325;42.520;27.448;2023-04-28T07:44:35;101492.41;;;17.44;32.57
8575;BME280;4325;42.520;27.448;2023-04-28T07:47:02;101482.53;;;17.75;32.74
8575;BME280;4325;42.520;27.448;2023-04-28T07:49:29;101486.25;;;17.84;31.09
8575;BME280;4325;42.520;27.448;2023-04-28T07:51:56;101487.91;;;17.85;31.06
8575;BME280;4325;42.520;27.448;2023-04-28T07:54:23;101480.78;;;17.98;30.55
8575;BME280;4325;42.520;27.448;2023-04-28T07:56:51;101478.28;;;18.15;30.45
8575;BME280;4325;42.520;27.448;2023-04-28T07:59:18;101481.56;;;18.49;30.43
8575;BME280;4325;42.520;27.448;2023-04-28T08:01:45;101488.41;;;19.06;29.77
8575;BME280;4325;42.520;27.448;2023-04-28T08:04:12;101484.44;;;20.28;28.95
8575;BME280;4325;42.520;27.448;2023-04-28T08:06:39;101482.91;;;22.08;27.03
8575;BME280;4325;42.520;27.448;2023-04-28T08:09:06;101479.84;;;24.06;25.26
8575;BME280;4325;42.520;27.448;2023-04-28T08:11:33;101472.34;;;24.87;23.67
8575;BME280;4325;42.520;27.448;2023-04-28T08:14:01;101480.41;;;24.32;23.67
8575;BME280;4325;42.520;27.448;2023-04-28T08:16:29;101482.75;;;23.35;24.06
8575;BME280;4325;42.520;27.448;2023-04-28T08:18:56;101480.16;;;22.55;24.75
8575;BME280;4325;42.520;27.448;2023-04-28T08:21:23;101483.19;;;22.32;25.56
8575;BME280;4325;42.520;27.448;2023-04-28T08:23:51;101484.69;;;22.13;25.01
8575;BME280;4325;42.520;27.448;2023-04-28T08:26:18;101475.50;;;22.12;25.01
8575;BME280;4325;42.520;27.448;2023-04-28T08:28:45;101474.50;;;22.34;25.43
8575;BME280;4325;42.520;27.448;2023-04-28T08:31:13;101461.53;;;22.76;25.07
8575;BME280;4325;42.520;27.448;2023-04-28T08:33:40;101474.34;;;23.56;25.00
8575;BME280;4325;42.520;27.448;2023-04-28T08:36:09;101454.34;;;24.64;23.39
8575;BME280;4325;42.520;27.448;2023-04-28T08:38:39;101448.94;;;25.32;22.78
8575;BME280;4325;42.520;27.448;2023-04-28T08:41:06;101452.34;;;25.77;22.26
8575;BME280;4325;42.520;27.448;2023-04-28T08:43:34;101447.03;;;25.60;22.55
8575;BME280;4325;42.520;27.448;2023-04-28T08:46:05;101443.47;;;25.23;22.50
8575;BME280;4325;42.520;27.448;2023-04-28T08:48:38;101445.19;;;25.40;21.84
8575;BME280;4325;42.520;27.448;2023-04-28T08:51:06;101451.28;;;25.30;21.92
8575;BME280;4325;42.520;27.448;2023-04-28T08:53:36;101447.38;;;25.07;21.54
8575;BME280;4325;42.520;27.448;2023-04-28T08:56:05;101445.59;;;24.78;22.36
8575;BME280;4325;42.520;27.448;2023-04-28T08:58:34;101444.09;;;24.80;22.72
8575;BME280;4325;42.520;27.448;2023-04-28T09:01:02;101437.78;;;25.08;22.43
8575;BME280;4325;42.520;27.448;2023-04-28T09:03:30;101447.19;;;25.27;22.56
8575;BME280;4325;42.520;27.448;2023-04-28T09:06:00;101444.91;;;25.05;21.96
8575;BME280;4325;42.520;27.448;2023-04-28T09:08:27;101434.94;;;25.20;22.07
8575;BME280;4325;42.520;27.448;2023-04-28T09:11:07;101440.97;;;25.34;21.83
8575;BME280;4325;42.520;27.448;2023-04-28T09:13:35;101444.56;;;24.82;22.39
8575;BME280;4325;42.520;27.448;2023-04-28T09:16:03;101439.31;;;24.24;22.59
8575;BME280;4325;42.520;27.448;2023-04-28T09:18:30;101438.69;;;23.74;22.53
8575;BME280;4325;42.520;27.448;2023-04-28T09:21:09;101441.28;;;23.37;22.78
8575;BME280;4325;42.520;27.448;2023-04-28T09:23:46;101438.47;;;23.79;22.49
8575;BME280;4325;42.520;27.448;2023-04-28T09:26:13;101432.97;;;23.70;22.35
8575;BME280;4325;42.520;27.448;2023-04-28T09:28:40;101435.59;;;24.20;22.35
8575;BME280;4325;42.520;27.448;2023-04-28T09:31:21;101416.13;;;25.32;21.22
8575;BME280;4325;42.520;27.448;2023-04-28T09:33:55;101431.13;;;25.00;21.62
8575;BME280;4325;42.520;27.448;2023-04-28T09:36:26;101425.66;;;24.79;22.00
8575;BME280;4325;42.520;27.448;2023-04-28T09:38:57;101422.84;;;24.67;22.19
8575;BME280;4325;42.520;27.448;2023-04-28T09:41:34;101429.34;;;24.47;22.40
8575;BME280;4325;42.520;27.448;2023-04-28T09:44:12;101430.78;;;25.02;21.77
8575;BME280;4325;42.520;27.448;2023-04-28T09:46:40;101421.47;;;25.37;21.46
8575;BME280;4325;42.520;27.448;2023-04-28T09:49:07;101418.75;;;25.65;20.75
8575;BME280;4325;42.520;27.448;2023-04-28T09:51:35;101422.00;;;25.67;21.01
8575;BME280;4325;42.520;27.448;2023-04-28T09:54:03;101421.34;;;26.76;19.97
8575;BME280;4325;42.520;27.448;2023-04-28T09:56:31;101415.09;;;26.36;20.38
8575;BME280;4325;42.520;27.448;2023-04-28T09:58:59;101419.59;;;26.71;20.75
8575;BME280;4325;42.520;27.448;2023-04-28T10:01:27;101401.22;;;29.51;18.64
8575;BME280;4325;42.520;27.448;2023-04-28T10:03:59;101407.44;;;30.81;17.64
8575;BME280;4325;42.520;27.448;2023-04-28T10:06:26;101409.53;;;30.91;17.26
8575;BME280;4325;42.520;27.448;2023-04-28T10:08:55;101410.13;;;29.86;18.12
8575;BME280;4325;42.520;27.448;2023-04-28T10:11:24;101403.56;;;28.90;19.05
8575;BME280;4325;42.520;27.448;2023-04-28T10:13:53;101402.91;;;28.51;19.27
8575;BME280;4325;42.520;27.448;2023-04-28T10:16:20;101418.81;;;27.98;19.76
8575;BME280;4325;42.520;27.448;2023-04-28T10:18:48;101412.00;;;27.22;19.66
8575;BME280;4325;42.520;27.448;2023-04-28T10:21:17;101418.09;;;27.43;19.88
8575;BME280;4325;42.520;27.448;2023-04-28T10:24:06;101412.72;;;26.69;19.80
8575;BME280;4325;42.520;27.448;2023-04-28T10:27:02;101408.63;;;25.76;20.94
8575;BME280;4325;42.520;27.448;2023-04-28T10:29:30;101408.03;;;25.55;21.70
8575;BME280;4325;42.520;27.448;2023-04-28T10:32:16;101397.94;;;26.56;20.45
8575;BME280;4325;42.520;27.448;2023-04-28T10:34:44;101403.72;;;26.16;20.29
8575;BME280;4325;42.520;27.448;2023-04-28T10:37:11;101399.16;;;25.96;20.77
8575;BME280;4325;42.520;27.448;2023-04-28T10:42:52;101399.03;;;28.13;18.93
8575;BME280;4325;42.520;27.448;2023-04-28T10:45:58;101401.66;;;27.45;19.65
8575;BME280;4325;42.520;27.448;2023-04-28T10:48:52;101392.44;;;27.10;19.85
8575;BME280;4325;42.520;27.448;2023-04-28T10:51:32;101405.56;;;26.71;19.92
8575;BME280;4325;42.520;27.448;2023-04-28T10:54:15;101398.50;;;25.87;20.08
8575;BME280;4325;42.520;27.448;2023-04-28T10:57:21;101392.16;;;25.47;20.39
8575;BME280;4325;42.520;27.448;2023-04-28T10:59:49;101401.81;;;24.98;21.12
8575;BME280;4325;42.520;27.448;2023-04-28T11:05:13;101397.38;;;28.81;18.26
8575;BME280;4325;42.520;27.448;2023-04-28T11:07:40;101401.16;;;28.92;17.89
8575;BME280;4325;42.520;27.448;2023-04-28T11:13:25;101400.72;;;29.16;17.71
8575;BME280;4325;42.520;27.448;2023-04-28T11:16:02;101385.47;;;32.36;16.72
8575;BME280;4325;42.520;27.448;2023-04-28T11:18:29;101382.78;;;35.57;14.27
8575;BME280;4325;42.520;27.448;2023-04-28T11:20:57;101391.03;;;38.67;12.95
8575;BME280;4325;42.520;27.448;2023-04-28T11:23:27;101404.06;;;37.05;12.64
8575;BME280;4325;42.520;27.448;2023-04-28T11:25:55;101392.78;;;33.95;14.07
8575;BME280;4325;42.520;27.448;2023-04-28T11:28:22;101395.91;;;31.97;15.58
8575;BME280;4325;42.520;27.448;2023-04-28T11:30:50;101393.88;;;34.15;14.46
8575;BME280;4325;42.520;27.448;2023-04-28T11:33:17;101396.38;;;36.79;13.06
8575;BME280;4325;42.520;27.448;2023-04-28T11:35:44;101395.94;;;36.58;13.50
8575;BME280;4325;42.520;27.448;2023-04-28T11:38:11;101396.22;;;34.78;13.90
8575;BME280;4325;42.520;27.448;2023-04-28T11:40:38;101403.00;;;33.81;14.46
8575;BME280;4325;42.520;27.448;2023-04-28T11:43:28;101404.44;;;34.18;13.96
8575;BME280;4325;42.520;27.448;2023-04-28T11:45:56;101392.25;;;33.34;14.75
8575;BME280;4325;42.520;27.448;2023-04-28T11:48:23;101392.28;;;34.14;14.23
8575;BME280;4325;42.520;27.448;2023-04-28T11:50:50;101403.19;;;33.32;15.00
8575;BME280;4325;42.520;27.448;2023-04-28T11:53:16;101400.84;;;32.85;14.81
8575;BME280;4325;42.520;27.448;2023-04-28T11:55:43;101399.34;;;31.45;15.40
8575;BME280;4325;42.520;27.448;2023-04-28T11:58:17;101388.91;;;29.99;16.74
8575;BME280;4325;42.520;27.448;2023-04-28T12:01:06;101389.78;;;28.13;17.71
8575;BME280;4325;42.520;27.448;2023-04-28T12:03:41;101393.53;;;27.79;18.25
8575;BME280;4325;42.520;27.448;2023-04-28T12:06:08;101380.31;;;30.77;16.54
8575;BME280;4325;42.520;27.448;2023-04-28T12:08:35;101379.34;;;31.09;16.65
8575;BME280;4325;42.520;27.448;2023-04-28T12:11:09;101371.59;;;30.41;16.47
8575;BME280;4325;42.520;27.448;2023-04-28T12:13:37;101379.84;;;31.25;16.76
8575;BME280;4325;42.520;27.448;2023-04-28T12:16:07;101370.16;;;30.65;16.57
8575;BME280;4325;42.520;27.448;2023-04-28T12:18:34;101378.97;;;32.39;15.25
8575;BME280;4325;42.520;27.448;2023-04-28T12:21:02;101377.59;;;31.56;15.59
8575;BME280;4325;42.520;27.448;2023-04-28T12:23:30;101381.78;;;30.13;16.67
8575;BME280;4325;42.520;27.448;2023-04-28T12:25:57;101380.59;;;29.77;17.28
8575;BME280;4325;42.520;27.448;2023-04-28T12:28:35;101365.09;;;29.64;17.25
8575;BME280;4325;42.520;27.448;2023-04-28T12:31:04;101379.88;;;28.00;18.51
8575;BME280;4325;42.520;27.448;2023-04-28T12:33:34;101382.91;;;26.80;19.18
8575;BME280;4325;42.520;27.448;2023-04-28T12:36:03;101375.38;;;26.53;19.68
8575;BME280;4325;42.520;27.448;2023-04-28T12:38:31;101377.13;;;27.84;19.00
8575;BME280;4325;42.520;27.448;2023-04-28T12:40:58;101369.50;;;27.85;18.24
8575;BME280;4325;42.520;27.448;2023-04-28T12:43:25;101372.19;;;27.78;18.62
8575;BME280;4325;42.520;27.448;2023-04-28T12:45:53;101377.25;;;27.49;18.75
8575;BME280;4325;42.520;27.448;2023-04-28T12:48:21;101365.22;;;27.33;18.86
8575;BME280;4325;42.520;27.448;2023-04-28T12:50:50;101366.50;;;27.97;18.52
8575;BME280;4325;42.520;27.448;2023-04-28T12:53:17;101353.00;;;29.04;17.78
8575;BME280;4325;42.520;27.448;2023-04-28T12:55:44;101365.78;;;28.45;18.22
8575;BME280;4325;42.520;27.448;2023-04-28T12:58:11;101366.59;;;27.59;18.77
8575;BME280;4325;42.520;27.448;2023-04-28T13:00:38;101359.72;;;26.52;19.13
8575;BME280;4325;42.520;27.448;2023-04-28T13:03:06;101363.88;;;27.08;18.68
8575;BME280;4325;42.520;27.448;2023-04-28T13:05:33;101355.53;;;27.31;19.00
8575;BME280;4325;42.520;27.448;2023-04-28T13:08:01;101353.06;;;26.91;19.33
8575;BME280;4325;42.520;27.448;2023-04-28T13:10:29;101346.69;;;26.12;19.93
8575;BME280;4325;42.520;27.448;2023-04-28T13:12:55;101348.94;;;25.36;20.83
8575;BME280;4325;42.520;27.448;2023-04-28T13:15:22;101341.50;;;24.88;21.23